Time;durP1;ratioP1;P1;durP2;ratioP2;P2;SDS_P1;SDS_P2;PMS_P1;PMS_P2;Temp;Humidity;BMP_temperature;BMP_pressure;BME280_temperature;BME280_humidity;BME280_pressure;Samples;Min_cycle;Max_cycle;Signal;HPM_P1;HPM_P2
2021/09/27 00:00:15;;;;;;;27.23;24.73;;;19.10;99.90;;;;;;6002986;23;20837;-68
2021/09/27 00:02:41;;;;;;;28.10;25.20;;;19.10;99.90;;;;;;6006357;23;20242;-68
2021/09/27 00:05:10;;;;;;;26.40;23.70;;;19.10;99.90;;;;;;6022898;23;20530;-67
2021/09/27 00:07:39;;;;;;;26.10;23.30;;;19.10;99.90;;;;;;6013681;23;20355;-67
2021/09/27 00:10:07;;;;;;;26.20;23.90;;;19.10;99.90;;;;;;6004241;23;20697;-67
2021/09/27 00:12:35;;;;;;;23.97;21.87;;;19.10;99.90;;;;;;5977547;23;21179;-68
2021/09/27 00:15:08;;;;;;;26.33;23.83;;;19.10;99.90;;;;;;6002966;23;20530;-67
2021/09/27 00:17:35;;;;;;;26.50;24.10;;;19.10;99.90;;;;;;6002129;23;20612;-67
2021/09/27 00:20:04;;;;;;;27.73;25.20;;;19.10;99.90;;;;;;5977736;23;20564;-67
2021/09/27 00:22:29;;;;;;;27.37;24.90;;;19.10;99.90;;;;;;6001156;23;20588;-68
2021/09/27 00:24:57;;;;;;;22.77;20.70;;;19.10;99.90;;;;;;6002357;23;20538;-68
2021/09/27 00:27:23;;;;;;;25.83;23.47;;;19.10;99.90;;;;;;5976421;23;20696;-68
2021/09/27 00:29:48;;;;;;;25.70;23.30;;;19.10;99.90;;;;;;6002754;23;20647;-67
2021/09/27 00:32:19;;;;;;;23.97;21.77;;;19.10;99.90;;;;;;5977143;23;20633;-68
2021/09/27 00:34:44;;;;;;;23.50;21.30;;;19.10;99.90;;;;;;6003140;23;20225;-68
2021/09/27 00:37:10;;;;;;;26.70;24.30;;;19.10;99.90;;;;;;6001652;23;20613;-68
2021/09/27 00:39:35;;;;;;;24.50;22.33;;;19.10;99.90;;;;;;6001423;23;20165;-68
2021/09/27 00:42:03;;;;;;;25.67;23.03;;;19.10;99.90;;;;;;6002013;23;20365;-68
2021/09/27 00:44:29;;;;;;;23.03;21.00;;;19.10;99.90;;;;;;6002286;23;20169;-67
2021/09/27 00:46:54;;;;;;;24.70;22.30;;;19.10;99.90;;;;;;6001510;23;21378;-68
2021/09/27 00:49:22;;;;;;;22.40;20.50;;;19.10;99.90;;;;;;6001657;23;20212;-67
2021/09/27 00:51:48;;;;;;;24.30;22.10;;;19.10;99.90;;;;;;6001855;23;20676;-67
2021/09/27 00:54:22;;;;;;;22.80;20.83;;;19.10;99.90;;;;;;6001815;23;20529;-67
2021/09/27 00:57:04;;;;;;;23.90;21.80;;;19.10;99.90;;;;;;5975777;23;20597;-67
2021/09/27 00:59:31;;;;;;;23.17;21.17;;;19.10;99.90;;;;;;6003065;23;20578;-67
2021/09/27 01:01:57;;;;;;;24.80;22.50;;;19.10;99.90;;;;;;5978420;23;20945;-67
2021/09/27 01:04:23;;;;;;;24.10;22.00;;;19.10;99.90;;;;;;6003311;23;20549;-68
2021/09/27 01:07:16;;;;;;;25.03;22.93;;;19.10;99.90;;;;;;6001970;23;20364;-68
2021/09/27 01:10:23;;;;;;;22.23;20.23;;;19.10;99.90;;;;;;6003116;23;20142;-67
2021/09/27 01:13:26;;;;;;;20.67;18.87;;;19.10;99.90;;;;;;6003024;23;21079;-67
2021/09/27 01:16:21;;;;;;;21.77;19.87;;;19.10;99.90;;;;;;6002165;23;20592;-68
2021/09/27 01:19:27;;;;;;;21.03;19.27;;;19.10;99.90;;;;;;5979265;23;20597;-68
2021/09/27 01:22:46;;;;;;;23.60;21.50;;;19.10;99.90;;;;;;6004129;23;20641;-67
2021/09/27 01:25:23;;;;;;;24.07;22.00;;;19.10;99.90;;;;;;5863515;24;20567;-67
2021/09/27 01:28:17;;;;;;;24.37;22.07;;;19.10;99.90;;;;;;6004677;23;20624;-68
2021/09/27 01:31:22;;;;;;;24.03;21.73;;;19.10;99.90;;;;;;6004372;23;21330;-67
2021/09/27 01:34:19;;;;;;;24.07;21.87;;;19.00;99.90;;;;;;5979330;23;20584;-68
2021/09/27 01:37:08;;;;;;;21.40;19.50;;;19.00;99.90;;;;;;6003446;23;20620;-67
2021/09/27 01:39:39;;;;;;;24.27;22.17;;;19.00;99.90;;;;;;6005037;23;20513;-67
2021/09/27 01:42:13;;;;;;;23.37;21.37;;;19.00;99.90;;;;;;6003427;23;20560;-67
2021/09/27 01:44:45;;;;;;;22.83;20.67;;;19.00;99.90;;;;;;6003658;23;20620;-67
2021/09/27 01:47:23;;;;;;;23.40;21.20;;;19.00;99.90;;;;;;6002536;23;21467;-67
2021/09/27 01:50:16;;;;;;;23.90;21.70;;;19.00;99.90;;;;;;5978610;23;20573;-67
2021/09/27 01:52:57;;;;;;;24.90;22.67;;;19.00;99.90;;;;;;6004328;23;20524;-67
2021/09/27 01:55:31;;;;;;;23.77;21.47;;;19.00;99.90;;;;;;6003857;23;20510;-67
2021/09/27 01:58:15;;;;;;;24.17;21.87;;;19.00;99.90;;;;;;6004188;23;20594;-67
2021/09/27 02:00:52;;;;;;;22.40;20.30;;;19.00;99.90;;;;;;6004550;23;20514;-66
2021/09/27 02:03:33;;;;;;;25.03;22.60;;;19.00;99.90;;;;;;6003771;23;21024;-67
2021/09/27 02:06:23;;;;;;;22.93;20.90;;;19.10;99.90;;;;;;6003060;23;20597;-67
2021/09/27 02:08:51;;;;;;;22.87;20.77;;;19.10;99.90;;;;;;5978337;23;21095;-67
2021/09/27 02:11:24;;;;;;;25.30;23.00;;;19.10;99.90;;;;;;5978911;23;20665;-67
2021/09/27 02:14:16;;;;;;;23.57;21.47;;;19.00;99.90;;;;;;5979221;23;20734;-67
2021/09/27 02:17:05;;;;;;;24.70;22.53;;;19.00;99.90;;;;;;6001791;23;20944;-68
2021/09/27 02:19:40;;;;;;;23.20;21.00;;;19.00;99.90;;;;;;6003951;23;20561;-67
2021/09/27 02:22:21;;;;;;;25.10;22.80;;;19.00;99.90;;;;;;6002519;23;20550;-69
2021/09/27 02:24:54;;;;;;;25.97;23.67;;;19.00;99.90;;;;;;6003155;23;20524;-67
2021/09/27 02:27:22;;;;;;;27.33;24.80;;;19.00;99.90;;;;;;6004093;23;21164;-67
2021/09/27 02:29:47;;;;;;;25.77;23.43;;;19.00;99.90;;;;;;6004052;23;20692;-67
2021/09/27 02:32:36;;;;;;;30.53;27.47;;;19.00;99.90;;;;;;6003286;23;20542;-67
2021/09/27 02:35:23;;;;;;;28.37;25.80;;;19.00;99.90;;;;;;5976884;23;20454;-67
2021/09/27 02:38:15;;;;;;;28.77;26.03;;;19.00;99.90;;;;;;6002380;23;20839;-69
2021/09/27 02:41:08;;;;;;;29.30;26.50;;;19.00;99.90;;;;;;6003484;23;20502;-67
2021/09/27 02:43:34;;;;;;;28.47;25.87;;;19.00;99.90;;;;;;6003695;23;21076;-70
2021/09/27 02:46:02;;;;;;;28.00;25.40;;;19.00;99.90;;;;;;6002229;23;20593;-67
2021/09/27 02:48:39;;;;;;;28.80;26.10;;;19.00;99.90;;;;;;5977320;23;20192;-68
2021/09/27 02:51:06;;;;;;;29.70;26.90;;;19.00;99.90;;;;;;6003661;23;20529;-68
2021/09/27 02:53:37;;;;;;;30.33;27.53;;;19.00;99.90;;;;;;6021783;23;20526;-68
2021/09/27 02:56:14;;;;;;;30.40;27.70;;;19.00;99.90;;;;;;6018507;23;20611;-67
2021/09/27 02:59:15;;;;;;;30.23;27.23;;;19.10;99.90;;;;;;6003665;23;20641;-68
2021/09/27 03:01:55;;;;;;;28.63;26.00;;;19.10;99.90;;;;;;6001412;23;20582;-67
2021/09/27 03:04:48;;;;;;;27.70;25.20;;;19.00;99.90;;;;;;5977313;23;20558;-67
2021/09/27 03:07:49;;;;;;;29.60;26.80;;;19.10;99.90;;;;;;6001307;23;20602;-69
2021/09/27 03:10:20;;;;;;;29.87;27.17;;;19.10;99.90;;;;;;6002254;23;20582;-68
2021/09/27 03:13:12;;;;;;;28.73;26.13;;;19.10;99.90;;;;;;6001559;23;20612;-67
2021/09/27 03:15:56;;;;;;;28.30;25.70;;;19.10;99.90;;;;;;6001793;23;20506;-67
2021/09/27 03:19:06;;;;;;;29.10;26.47;;;19.10;99.90;;;;;;6001415;23;20573;-67
2021/09/27 03:21:57;;;;;;;32.00;29.00;;;19.10;99.90;;;;;;5974066;23;20692;-67
2021/09/27 03:25:00;;;;;;;32.20;29.07;;;19.10;99.90;;;;;;5937922;23;20565;-69
2021/09/27 03:27:36;;;;;;;33.23;29.93;;;19.00;99.90;;;;;;6002122;23;21193;-67
2021/09/27 03:30:07;;;;;;;33.77;30.37;;;19.00;99.90;;;;;;6003080;23;20996;-68
2021/09/27 03:32:52;;;;;;;31.57;28.30;;;19.10;99.90;;;;;;6004055;23;20510;-67
2021/09/27 03:35:32;;;;;;;32.63;29.63;;;19.10;99.90;;;;;;6002659;23;20498;-67
2021/09/27 03:38:11;;;;;;;33.17;29.97;;;19.10;99.90;;;;;;6001892;23;20605;-67
2021/09/27 03:41:04;;;;;;;33.97;30.67;;;19.10;99.90;;;;;;6003501;23;20538;-67
2021/09/27 03:43:47;;;;;;;33.23;29.97;;;19.00;99.90;;;;;;5976315;23;20580;-68
2021/09/27 03:46:54;;;;;;;32.07;28.93;;;18.90;99.90;;;;;;6002747;23;20598;-67
2021/09/27 03:49:30;;;;;;;34.50;31.00;;;18.90;99.90;;;;;;6003547;23;21084;-67
2021/09/27 03:52:06;;;;;;;32.87;29.57;;;18.90;99.90;;;;;;6004130;23;20586;-67
2021/09/27 03:54:39;;;;;;;29.10;26.20;;;18.90;99.90;;;;;;6002528;23;20534;-67
2021/09/27 03:57:25;;;;;;;29.63;26.80;;;19.00;99.90;;;;;;6001906;23;21061;-67
2021/09/27 04:00:03;;;;;;;29.53;26.63;;;19.00;99.90;;;;;;6002082;23;20581;-67
2021/09/27 04:02:45;;;;;;;29.60;26.80;;;19.00;99.90;;;;;;6003160;23;20549;-68
2021/09/27 04:05:19;;;;;;;30.67;27.53;;;19.00;99.90;;;;;;6003166;23;20710;-68
2021/09/27 04:07:56;;;;;;;28.80;25.97;;;19.00;99.90;;;;;;6001549;23;20876;-67
2021/09/27 04:10:26;;;;;;;29.40;26.57;;;19.00;99.90;;;;;;6004472;23;20581;-68
2021/09/27 04:13:25;;;;;;;27.87;25.23;;;19.00;99.90;;;;;;6003244;23;20669;-67
2021/09/27 04:16:28;;;;;;;28.20;25.60;;;19.00;99.90;;;;;;5999870;23;20605;-67
2021/09/27 04:19:15;;;;;;;29.23;26.53;;;19.00;99.90;;;;;;6002100;23;21054;-68
2021/09/27 04:21:53;;;;;;;27.37;24.67;;;19.00;99.90;;;;;;6002764;23;20573;-67
2021/09/27 04:24:58;;;;;;;27.53;25.00;;;19.00;99.90;;;;;;6003144;23;21282;-67
2021/09/27 04:27:42;;;;;;;27.77;24.77;;;19.00;99.90;;;;;;6002585;23;20597;-67
2021/09/27 04:30:33;;;;;;;27.43;24.83;;;19.00;99.90;;;;;;5977560;23;20803;-67
2021/09/27 04:33:08;;;;;;;28.73;25.90;;;19.00;99.90;;;;;;6003752;23;20542;-67
2021/09/27 04:35:54;;;;;;;28.80;25.80;;;18.90;99.90;;;;;;6003725;23;20514;-69
2021/09/27 04:38:23;;;;;;;27.37;24.77;;;18.90;99.90;;;;;;6004554;23;20566;-66
2021/09/27 04:41:04;;;;;;;26.30;23.80;;;19.00;99.90;;;;;;6004780;23;20554;-67
2021/09/27 04:43:56;;;;;;;27.23;24.70;;;19.00;99.90;;;;;;6001815;23;20540;-66
2021/09/27 04:46:58;;;;;;;28.43;25.67;;;19.00;99.90;;;;;;5977667;23;20589;-68
2021/09/27 04:49:45;;;;;;;26.43;24.03;;;19.00;99.90;;;;;;5977382;23;20717;-66
2021/09/27 04:52:35;;;;;;;28.00;25.40;;;19.00;99.90;;;;;;6000604;23;21342;-67
2021/09/27 04:55:38;;;;;;;28.10;25.40;;;19.00;99.90;;;;;;6003530;23;20598;-66
2021/09/27 04:58:26;;;;;;;29.20;26.20;;;19.00;99.90;;;;;;6003667;23;20723;-66
2021/09/27 05:01:03;;;;;;;26.03;23.43;;;19.00;99.90;;;;;;6004416;23;21079;-67
2021/09/27 05:03:50;;;;;;;26.97;24.37;;;19.00;99.90;;;;;;6003004;23;20524;-67
2021/09/27 05:06:30;;;;;;;27.93;25.30;;;19.00;99.90;;;;;;6005611;23;21070;-66
2021/09/27 05:09:12;;;;;;;28.70;25.70;;;19.00;99.90;;;;;;5975616;23;20612;-67
2021/09/27 05:12:14;;;;;;;27.93;24.97;;;19.00;99.90;;;;;;6004815;23;20565;-67
2021/09/27 05:15:01;;;;;;;28.50;25.60;;;19.00;99.90;;;;;;6005555;23;20625;-67
2021/09/27 05:17:32;;;;;;;27.97;24.77;;;19.00;99.90;;;;;;5978770;23;20605;-68
2021/09/27 05:20:22;;;;;;;27.07;24.57;;;19.00;99.90;;;;;;5998489;23;20540;-67
2021/09/27 05:22:56;;;;;;;27.53;24.80;;;19.00;99.90;;;;;;5993361;23;20565;-69
2021/09/27 05:25:52;;;;;;;29.27;26.40;;;19.00;99.90;;;;;;5968315;23;20565;-70
2021/09/27 05:28:34;;;;;;;27.13;24.47;;;19.00;99.90;;;;;;5995103;23;21507;-66
2021/09/27 05:31:21;;;;;;;29.17;26.37;;;19.00;99.90;;;;;;6000462;23;20549;-66
2021/09/27 05:34:17;;;;;;;28.80;26.00;;;19.00;99.90;;;;;;5973538;23;20629;-66
2021/09/27 05:37:00;;;;;;;27.03;24.33;;;19.00;99.90;;;;;;5999608;23;21091;-67
2021/09/27 05:40:01;;;;;;;29.70;26.67;;;19.00;99.90;;;;;;5996786;23;20593;-66
2021/09/27 05:43:04;;;;;;;28.23;25.33;;;19.00;99.90;;;;;;6014151;23;20554;-67
2021/09/27 05:45:53;;;;;;;31.57;28.53;;;19.00;99.90;;;;;;5988598;23;20557;-66
2021/09/27 05:48:43;;;;;;;28.57;25.70;;;19.00;99.90;;;;;;6003622;23;20554;-66
2021/09/27 05:51:44;;;;;;;27.47;24.77;;;19.00;99.90;;;;;;6004379;23;20887;-67
2021/09/27 05:54:40;;;;;;;28.33;25.53;;;19.00;99.90;;;;;;6002096;23;20529;-67
2021/09/27 05:57:23;;;;;;;27.27;24.73;;;19.00;99.90;;;;;;6001695;23;20586;-67
2021/09/27 06:00:07;;;;;;;26.83;24.10;;;19.00;99.90;;;;;;6004296;23;21122;-67
2021/09/27 06:03:03;;;;;;;27.93;25.30;;;19.00;99.90;;;;;;5998797;23;21076;-69
2021/09/27 06:05:56;;;;;;;28.67;25.70;;;19.00;99.90;;;;;;5990945;23;20938;-67
2021/09/27 06:09:04;;;;;;;29.17;26.20;;;19.00;99.90;;;;;;6001158;23;20573;-67
2021/09/27 06:11:56;;;;;;;29.83;26.80;;;19.10;99.90;;;;;;5996313;23;20761;-66
2021/09/27 06:14:22;;;;;;;28.77;25.77;;;19.10;99.90;;;;;;6001411;23;21154;-67
2021/09/27 06:17:06;;;;;;;28.70;25.70;;;19.10;99.90;;;;;;5999923;23;20585;-67
2021/09/27 06:19:40;;;;;;;30.30;27.27;;;19.00;99.90;;;;;;6001110;23;20531;-67
2021/09/27 06:22:36;;;;;;;28.47;25.67;;;19.00;99.90;;;;;;5978427;23;20609;-67
2021/09/27 06:25:39;;;;;;;28.57;25.67;;;19.00;99.90;;;;;;6003597;23;20513;-66
2021/09/27 06:28:32;;;;;;;28.90;26.20;;;19.00;99.90;;;;;;6001676;23;20727;-66
2021/09/27 06:31:09;;;;;;;28.63;25.83;;;19.00;99.90;;;;;;5977792;23;20558;-67
2021/09/27 06:33:45;;;;;;;28.00;25.20;;;19.00;99.90;;;;;;6003665;23;20530;-66
2021/09/27 06:36:16;;;;;;;29.37;26.57;;;19.10;99.90;;;;;;5976968;23;20677;-66
2021/09/27 06:38:42;;;;;;;28.87;26.00;;;19.10;99.90;;;;;;6003586;23;20554;-67
2021/09/27 06:41:14;;;;;;;29.37;26.47;;;19.10;99.90;;;;;;6002062;23;20570;-67
2021/09/27 06:43:40;;;;;;;29.93;27.03;;;19.10;99.90;;;;;;6002072;23;21025;-66
2021/09/27 06:46:06;;;;;;;27.73;24.93;;;19.10;99.90;;;;;;6000645;23;20589;-67
2021/09/27 06:48:32;;;;;;;29.63;26.50;;;19.10;99.90;;;;;;6002340;23;20468;-67
2021/09/27 06:50:58;;;;;;;30.67;27.47;;;19.10;99.90;;;;;;5978040;23;20173;-66
2021/09/27 06:53:25;;;;;;;31.43;28.23;;;19.10;99.90;;;;;;6004052;23;20560;-67
2021/09/27 06:55:51;;;;;;;32.30;29.10;;;19.10;99.90;;;;;;6002969;23;20280;-67
2021/09/27 06:58:17;;;;;;;31.67;28.47;;;19.10;99.90;;;;;;6003969;23;20589;-67
2021/09/27 07:00:43;;;;;;;31.50;28.50;;;19.10;99.90;;;;;;6003094;23;20950;-67
2021/09/27 07:03:08;;;;;;;30.47;27.47;;;19.00;99.90;;;;;;6002098;23;20184;-66
2021/09/27 07:05:34;;;;;;;33.33;29.80;;;19.10;99.90;;;;;;6002769;23;20165;-67
2021/09/27 07:08:01;;;;;;;32.30;29.20;;;19.10;99.90;;;;;;6004786;23;20193;-67
2021/09/27 07:10:27;;;;;;;32.63;29.43;;;19.00;99.90;;;;;;6001156;23;20203;-67
2021/09/27 07:12:52;;;;;;;31.37;28.30;;;19.00;99.90;;;;;;6001720;23;21195;-66
2021/09/27 07:15:19;;;;;;;32.37;29.00;;;19.10;99.90;;;;;;6003414;23;20549;-67
2021/09/27 07:17:44;;;;;;;33.07;29.77;;;19.10;99.90;;;;;;6004051;23;20304;-67
2021/09/27 07:20:15;;;;;;;32.27;28.90;;;19.10;99.90;;;;;;6004671;23;20590;-67
2021/09/27 07:22:41;;;;;;;32.93;29.63;;;19.10;99.90;;;;;;6005461;23;21131;-67
2021/09/27 07:25:08;;;;;;;32.37;28.97;;;19.10;99.90;;;;;;6005374;23;20542;-67
2021/09/27 07:27:35;;;;;;;34.33;30.00;;;19.20;99.90;;;;;;6002896;23;20616;-66
2021/09/27 07:30:00;;;;;;;33.13;29.60;;;19.20;99.90;;;;;;6003462;23;20534;-67
2021/09/27 07:32:26;;;;;;;34.00;30.30;;;19.20;99.90;;;;;;6004028;23;20553;-67
2021/09/27 07:34:52;;;;;;;34.40;31.00;;;19.10;99.90;;;;;;6003823;23;20172;-67
2021/09/27 07:37:20;;;;;;;34.20;29.97;;;19.20;99.90;;;;;;6001558;23;20608;-68
2021/09/27 07:39:46;;;;;;;34.60;31.03;;;19.20;99.90;;;;;;6003626;23;20161;-67
2021/09/27 07:42:12;;;;;;;33.63;30.10;;;19.20;99.90;;;;;;6001406;23;20612;-67
2021/09/27 07:44:37;;;;;;;33.83;29.97;;;19.20;99.90;;;;;;6002487;23;20167;-67
2021/09/27 07:47:04;;;;;;;35.90;32.00;;;19.20;99.90;;;;;;5974910;23;20605;-67
2021/09/27 07:49:31;;;;;;;33.00;29.43;;;19.20;99.90;;;;;;6004223;23;20169;-67
2021/09/27 07:51:57;;;;;;;31.47;28.30;;;19.20;99.90;;;;;;6004271;23;20868;-67
2021/09/27 07:54:25;;;;;;;34.47;30.80;;;19.30;99.90;;;;;;6000743;23;20545;-67
2021/09/27 07:56:53;;;;;;;35.90;30.40;;;19.30;99.90;;;;;;6002622;23;20624;-67
2021/09/27 07:59:19;;;;;;;32.30;29.00;;;19.30;99.90;;;;;;6001648;23;20660;-67
2021/09/27 08:01:45;;;;;;;35.90;29.70;;;19.40;99.90;;;;;;6000837;23;21290;-67
2021/09/27 08:04:13;;;;;;;34.43;30.10;;;19.40;99.90;;;;;;6002635;23;20206;-67
2021/09/27 08:06:38;;;;;;;35.10;30.20;;;19.40;99.90;;;;;;6003887;23;20695;-67
2021/09/27 08:09:04;;;;;;;34.67;29.30;;;19.40;99.90;;;;;;6002465;23;20629;-67
2021/09/27 08:11:30;;;;;;;31.77;28.47;;;19.40;99.90;;;;;;6004017;23;20191;-67
2021/09/27 08:13:56;;;;;;;32.33;28.57;;;19.40;99.90;;;;;;5978417;23;20180;-67
2021/09/27 08:16:22;;;;;;;34.33;30.73;;;19.40;99.90;;;;;;5988556;23;20617;-67
2021/09/27 08:18:47;;;;;;;32.10;28.70;;;19.40;99.90;;;;;;6002834;23;20608;-67
2021/09/27 08:21:16;;;;;;;35.17;31.40;;;19.40;99.90;;;;;;6004155;23;20232;-67
2021/09/27 08:23:42;;;;;;;33.90;30.07;;;19.40;99.90;;;;;;6004203;23;20154;-67
2021/09/27 08:26:08;;;;;;;31.20;27.90;;;19.30;99.90;;;;;;5977385;23;20612;-67
2021/09/27 08:28:36;;;;;;;32.80;29.40;;;19.40;99.90;;;;;;6004994;23;20638;-67
2021/09/27 08:31:11;;;;;;;32.60;29.27;;;19.50;99.90;;;;;;6019955;23;20153;-67
2021/09/27 08:33:38;;;;;;;31.57;28.47;;;19.40;99.90;;;;;;6027617;23;20536;-67
2021/09/27 08:36:06;;;;;;;30.83;27.63;;;19.40;99.90;;;;;;5995172;23;20697;-67
2021/09/27 08:38:37;;;;;;;30.93;27.60;;;19.40;99.90;;;;;;6013100;23;20577;-67
2021/09/27 08:41:31;;;;;;;31.60;28.03;;;19.40;99.90;;;;;;5984174;23;20577;-69
2021/09/27 08:44:24;;;;;;;29.60;26.50;;;19.40;99.90;;;;;;6006384;23;20576;-67
2021/09/27 08:46:57;;;;;;;31.33;27.93;;;19.50;99.90;;;;;;6005820;23;21108;-67
2021/09/27 08:49:51;;;;;;;31.87;28.47;;;19.40;99.90;;;;;;6001469;23;20534;-68
2021/09/27 08:52:18;;;;;;;32.13;28.73;;;19.40;99.90;;;;;;6001251;23;21086;-67
2021/09/27 08:54:47;;;;;;;32.03;28.80;;;19.40;99.90;;;;;;6004391;23;21122;-67
2021/09/27 08:57:29;;;;;;;29.80;26.90;;;19.40;99.90;;;;;;6002717;23;20669;-67
2021/09/27 09:00:22;;;;;;;37.10;30.83;;;19.40;99.90;;;;;;6004092;23;21090;-67
2021/09/27 09:03:21;;;;;;;31.30;27.90;;;19.40;99.90;;;;;;6003744;23;21113;-67
2021/09/27 09:06:04;;;;;;;30.27;27.17;;;19.40;99.90;;;;;;6002077;23;21477;-67
2021/09/27 09:08:49;;;;;;;30.37;27.20;;;19.40;99.90;;;;;;6004069;23;20553;-67
2021/09/27 09:11:30;;;;;;;31.13;27.83;;;19.30;99.90;;;;;;6004124;23;20556;-67
2021/09/27 09:14:10;;;;;;;30.77;27.50;;;19.30;99.90;;;;;;6003471;23;20501;-67
2021/09/27 09:16:38;;;;;;;30.00;26.97;;;19.40;99.90;;;;;;5977640;23;21598;-67
2021/09/27 09:19:08;;;;;;;30.47;27.10;;;19.50;99.90;;;;;;6004973;23;20557;-67
2021/09/27 09:21:39;;;;;;;31.13;27.83;;;19.50;99.90;;;;;;6005302;23;20590;-67
2021/09/27 09:24:11;;;;;;;31.13;27.93;;;19.50;99.90;;;;;;6005022;23;20574;-67
2021/09/27 09:26:40;;;;;;;30.63;27.47;;;19.60;99.90;;;;;;5978149;23;20602;-67
2021/09/27 09:29:08;;;;;;;31.27;27.97;;;19.60;99.90;;;;;;5980248;23;20632;-67
2021/09/27 09:31:39;;;;;;;31.03;27.70;;;19.60;99.90;;;;;;6002723;23;20633;-67
2021/09/27 09:34:31;;;;;;;31.87;28.47;;;19.70;99.90;;;;;;6004514;23;20532;-67
2021/09/27 09:37:00;;;;;;;30.50;27.40;;;19.70;99.90;;;;;;5978312;23;20604;-69
2021/09/27 09:39:41;;;;;;;28.87;25.80;;;19.70;99.90;;;;;;6004446;23;20633;-67
2021/09/27 09:42:28;;;;;;;28.90;26.10;;;19.80;99.90;;;;;;6006095;23;20565;-67
2021/09/27 09:44:54;;;;;;;31.23;28.17;;;19.90;99.90;;;;;;6006151;23;20557;-68
2021/09/27 09:47:26;;;;;;;29.97;26.80;;;20.00;99.90;;;;;;6003539;23;20589;-67
2021/09/27 09:50:06;;;;;;;29.97;26.83;;;20.10;99.90;;;;;;6002661;23;20153;-67
2021/09/27 09:52:48;;;;;;;29.03;26.03;;;20.30;99.90;;;;;;6004451;23;21019;-67
2021/09/27 09:55:22;;;;;;;29.40;26.50;;;20.30;99.90;;;;;;6004669;23;20541;-67
2021/09/27 09:58:31;;;;;;;29.00;26.03;;;20.40;99.90;;;;;;5977830;23;20597;-67
2021/09/27 10:00:59;;;;;;;28.27;25.57;;;20.60;99.90;;;;;;5967540;23;20603;-67
2021/09/27 10:03:40;;;;;;;29.63;26.63;;;20.60;99.90;;;;;;5978349;23;20914;-68
2021/09/27 10:06:23;;;;;;;29.70;26.87;;;20.60;99.90;;;;;;6001930;23;20585;-67
2021/09/27 10:08:55;;;;;;;29.07;26.00;;;20.70;99.90;;;;;;6001729;23;20564;-67
2021/09/27 10:11:31;;;;;;;29.67;26.50;;;20.60;99.90;;;;;;5977895;23;20672;-66
2021/09/27 10:13:57;;;;;;;28.53;25.70;;;20.70;99.90;;;;;;6004363;23;20509;-67
2021/09/27 10:16:44;;;;;;;29.07;26.07;;;20.70;99.90;;;;;;6005216;23;20593;-67
2021/09/27 10:19:32;;;;;;;28.40;25.60;;;20.70;99.90;;;;;;6005767;23;20502;-67
2021/09/27 10:22:19;;;;;;;27.40;24.50;;;20.80;99.90;;;;;;6004722;23;20764;-67
2021/09/27 10:24:48;;;;;;;27.33;24.47;;;20.90;99.90;;;;;;6004907;23;20859;-66
2021/09/27 10:27:34;;;;;;;27.17;24.47;;;21.10;99.90;;;;;;5978756;23;20628;-67
2021/09/27 10:30:10;;;;;;;28.23;25.43;;;21.20;99.90;;;;;;5999565;23;20566;-67
2021/09/27 10:32:45;;;;;;;25.87;23.43;;;21.30;99.90;;;;;;6002572;23;20549;-66
2021/09/27 10:35:30;;;;;;;26.50;23.80;;;21.40;99.90;;;;;;6004281;23;20880;-67
2021/09/27 10:38:07;;;;;;;25.60;22.73;;;21.50;99.90;;;;;;6003428;23;20602;-67
2021/09/27 10:40:35;;;;;;;26.20;23.50;;;21.40;99.90;;;;;;6004365;23;20724;-67
2021/09/27 10:43:05;;;;;;;24.70;22.20;;;21.30;99.90;;;;;;6002461;23;20928;-66
2021/09/27 10:45:32;;;;;;;25.70;23.20;;;21.30;99.90;;;;;;6003385;23;20982;-67
2021/09/27 10:47:59;;;;;;;27.20;24.60;;;21.30;99.90;;;;;;5977325;23;20601;-67
2021/09/27 10:50:29;;;;;;;28.10;25.37;;;21.30;99.90;;;;;;6002229;23;20545;-67
2021/09/27 10:53:21;;;;;;;24.93;22.53;;;21.20;99.90;;;;;;6004475;23;20732;-67
2021/09/27 10:56:16;;;;;;;25.43;22.80;;;21.30;99.90;;;;;;6003394;23;21068;-67
2021/09/27 10:59:13;;;;;;;25.83;23.23;;;21.50;99.90;;;;;;6005206;23;20909;-67
2021/09/27 11:01:56;;;;;;;25.43;22.90;;;21.50;99.90;;;;;;5974136;23;20621;-67
2021/09/27 11:04:44;;;;;;;24.77;22.17;;;21.60;99.90;;;;;;6004502;23;20494;-67
2021/09/27 11:07:21;;;;;;;25.27;22.67;;;21.70;99.90;;;;;;5976555;23;20620;-67
2021/09/27 11:09:47;;;;;;;24.47;22.17;;;21.80;99.90;;;;;;6002029;23;20557;-67
2021/09/27 11:12:36;;;;;;;24.53;22.23;;;21.90;99.90;;;;;;6003708;23;20581;-67
2021/09/27 11:15:28;;;;;;;23.53;21.33;;;21.90;99.90;;;;;;6002075;23;20511;-67
2021/09/27 11:18:27;;;;;;;21.53;19.43;;;22.00;99.90;;;;;;5971520;23;20949;-67
2021/09/27 11:21:17;;;;;;;25.40;22.90;;;21.90;99.90;;;;;;6002795;23;20974;-67
2021/09/27 11:23:44;;;;;;;22.30;20.20;;;22.10;99.90;;;;;;6021735;23;20517;-67
2021/09/27 11:26:18;;;;;;;21.70;19.90;;;22.30;99.90;;;;;;6014701;23;20597;-68
2021/09/27 11:28:54;;;;;;;22.00;19.97;;;22.40;99.90;;;;;;6003598;23;20583;-68
2021/09/27 11:31:25;;;;;;;20.87;18.97;;;22.60;99.90;;;;;;6004649;23;20589;-68
2021/09/27 11:33:58;;;;;;;20.70;18.80;;;22.90;99.90;;;;;;6003537;23;21053;-68
2021/09/27 11:37:23;;;;;;;20.07;18.30;;;23.10;99.90;;;;;;6001232;23;20791;-68
2021/09/27 11:40:00;;;;;;;21.23;19.33;;;23.40;99.90;;;;;;5859318;24;20590;-68
2021/09/27 11:42:34;;;;;;;19.60;17.90;;;23.60;99.90;;;;;;5861829;24;20696;-67
2021/09/27 11:45:00;;;;;;;19.20;17.47;;;23.70;99.90;;;;;;5964876;23;20636;-68
2021/09/27 11:47:41;;;;;;;18.87;17.27;;;23.70;99.90;;;;;;5976677;23;20632;-68
2021/09/27 11:51:05;;;;;;;18.40;16.83;;;23.80;99.90;;;;;;6002582;23;20826;-68
2021/09/27 11:53:53;;;;;;;18.70;17.00;;;24.00;99.90;;;;;;6000201;23;20576;-69
2021/09/27 11:56:34;;;;;;;17.67;16.20;;;24.00;99.90;;;;;;6002286;23;20612;-68
2021/09/27 11:59:11;;;;;;;18.80;17.10;;;23.90;99.90;;;;;;6003823;23;20560;-68
2021/09/27 12:02:01;;;;;;;18.73;17.07;;;23.90;99.90;;;;;;5974989;23;20616;-68
2021/09/27 12:04:54;;;;;;;20.87;18.87;;;23.80;99.90;;;;;;5999177;23;20589;-68
2021/09/27 12:07:24;;;;;;;18.50;16.93;;;23.60;99.90;;;;;;5971352;23;20608;-68
2021/09/27 12:10:15;;;;;;;19.20;17.60;;;23.50;99.90;;;;;;6002738;23;20589;-68
2021/09/27 12:12:45;;;;;;;19.77;17.87;;;23.60;99.90;;;;;;6003036;23;20522;-68
2021/09/27 12:15:13;;;;;;;19.03;17.43;;;23.60;99.90;;;;;;6003258;23;20570;-68
2021/09/27 12:17:42;;;;;;;17.10;15.70;;;23.60;99.90;;;;;;6002698;23;20634;-68
2021/09/27 12:20:26;;;;;;;17.43;15.83;;;23.70;99.90;;;;;;5978630;23;20664;-69
2021/09/27 12:22:55;;;;;;;17.47;16.07;;;23.80;99.90;;;;;;6003168;23;20926;-69
2021/09/27 12:25:37;;;;;;;17.13;15.63;;;24.00;99.90;;;;;;6001451;23;20909;-68
2021/09/27 12:28:06;;;;;;;16.43;15.03;;;24.20;99.90;;;;;;5999849;23;20569;-68
2021/09/27 12:30:42;;;;;;;15.97;14.67;;;24.30;99.90;;;;;;5996132;23;20542;-68
2021/09/27 12:33:09;;;;;;;15.30;14.10;;;24.60;99.90;;;;;;6000102;23;20517;-67
2021/09/27 12:35:44;;;;;;;15.00;13.90;;;25.20;99.90;;;;;;5998655;23;20610;-67
2021/09/27 12:38:11;;;;;;;15.47;14.33;;;25.60;99.90;;;;;;5998499;23;20885;-66
2021/09/27 12:40:49;;;;;;;15.23;14.13;;;26.10;99.90;;;;;;6000401;23;21075;-68
2021/09/27 12:43:24;;;;;;;14.60;13.50;;;26.70;99.90;;;;;;6000365;23;20605;-67
2021/09/27 12:45:54;;;;;;;14.50;13.40;;;27.60;99.90;;;;;;5999850;23;20705;-66
2021/09/27 12:48:29;;;;;;;14.53;13.43;;;28.10;99.90;;;;;;6003073;23;20589;-67
2021/09/27 12:51:01;;;;;;;15.43;14.20;;;28.00;99.90;;;;;;5999077;23;21308;-69
2021/09/27 12:53:42;;;;;;;15.20;14.10;;;27.50;99.90;;;;;;6000893;23;20518;-68
2021/09/27 12:56:09;;;;;;;15.93;14.80;;;26.80;99.90;;;;;;6000438;23;20708;-68
2021/09/27 12:58:51;;;;;;;14.90;13.80;;;26.30;99.90;;;;;;6000668;23;21099;-68
2021/09/27 13:01:20;;;;;;;16.87;14.80;;;26.00;99.90;;;;;;6001137;23;20985;-68
2021/09/27 13:04:05;;;;;;;16.27;14.83;;;25.90;99.90;;;;;;5977102;23;20573;-68
2021/09/27 13:06:53;;;;;;;15.77;14.53;;;25.70;99.90;;;;;;6001152;23;20997;-68
2021/09/27 13:09:29;;;;;;;16.27;14.97;;;25.40;99.90;;;;;;6003509;23;20498;-67
2021/09/27 13:12:21;;;;;;;15.57;14.20;;;25.30;99.90;;;;;;6002464;23;20518;-68
2021/09/27 13:14:54;;;;;;;14.20;13.03;;;25.30;99.90;;;;;;6001878;23;21088;-68
2021/09/27 13:17:24;;;;;;;12.97;11.97;;;25.90;99.90;;;;;;6001900;23;20605;-68
2021/09/27 13:19:52;;;;;;;13.93;12.67;;;26.30;99.90;;;;;;5977603;23;20625;-68
2021/09/27 13:22:27;;;;;;;13.23;12.13;;;26.10;99.90;;;;;;5978126;23;20637;-68
2021/09/27 13:25:09;;;;;;;13.70;12.63;;;25.70;99.90;;;;;;5978766;23;20684;-68